Time;durP1;ratioP1;P1;durP2;ratioP2;P2;SDS_P1;SDS_P2;PMS_P1;PMS_P2;Temp;Humidity;BMP_temperature;BMP_pressure;BME280_temperature;BME280_humidity;BME280_pressure;Samples;Min_cycle;Max_cycle;Signal;HPM_P1;HPM_P2
2023/05/07 00:01:02;;;;;;;5.40;5.00;;;;;;;12.86;100.00;64042.25;4973051;28;20050;-93
2023/05/07 00:03:28;;;;;;;5.20;4.70;;;;;;;12.87;100.00;64042.50;4955893;28;20450;-93
2023/05/07 00:05:54;;;;;;;6.87;5.80;;;;;;;12.87;100.00;64042.59;4955931;28;20023;-93
2023/05/07 00:08:20;;;;;;;5.93;5.40;;;;;;;12.87;100.00;64043.34;4972837;28;20045;-92
2023/05/07 00:10:46;;;;;;;8.03;5.53;;;;;;;12.88;100.00;64044.00;4956065;28;20274;-93
2023/05/07 00:13:11;;;;;;;5.88;5.25;;;;;;;12.88;100.00;64044.94;4973229;28;20433;-93
2023/05/07 00:15:37;;;;;;;7.67;5.90;;;;;;;12.89;100.00;64045.59;4973176;28;20030;-94
2023/05/07 00:18:02;;;;;;;7.45;6.15;;;;;;;12.90;100.00;64046.75;4974393;28;20046;-93
2023/05/07 00:20:27;;;;;;;8.63;6.40;;;;;;;12.91;100.00;64047.69;4976203;28;20022;-94
2023/05/07 00:22:53;;;;;;;7.97;6.10;;;;;;;12.92;100.00;64049.25;4983272;28;20030;-93
2023/05/07 00:25:19;;;;;;;6.97;6.23;;;;;;;12.93;100.00;64050.50;4986064;28;20023;-93
2023/05/07 00:27:45;;;;;;;8.95;6.63;;;;;;;12.95;100.00;64051.75;4976763;28;20102;-93
2023/05/07 00:30:11;;;;;;;8.77;6.63;;;;;;;12.95;100.00;64052.25;4972100;28;20051;-93
2023/05/07 00:32:36;;;;;;;10.18;6.60;;;;;;;12.96;100.00;64053.44;4972740;28;20121;-93
2023/05/07 00:35:02;;;;;;;8.68;6.60;;;;;;;12.97;100.00;64054.09;4971789;28;20031;-93
2023/05/07 00:37:27;;;;;;;9.20;7.27;;;;;;;12.98;100.00;64054.50;4972966;28;20068;-92
2023/05/07 00:39:52;;;;;;;12.00;6.87;;;;;;;12.98;100.00;64054.69;4972774;28;20054;-92
2023/05/07 00:42:18;;;;;;;7.60;6.73;;;;;;;12.99;100.00;64055.16;4971420;28;20105;-92
2023/05/07 00:44:43;;;;;;;9.30;6.82;;;;;;;12.99;100.00;64055.69;4972556;28;20077;-92
2023/05/07 00:47:08;;;;;;;10.20;6.93;;;;;;;12.99;100.00;64055.69;4971921;28;20034;-92
2023/05/07 00:49:52;;;;;;;10.03;7.90;;;;;;;13.00;100.00;64056.75;4972573;28;20637;-92
2023/05/07 00:52:21;;;;;;;9.30;7.38;;;;;;;13.01;100.00;64057.34;4971984;28;20027;-93
2023/05/07 00:54:47;;;;;;;9.95;7.40;;;;;;;13.01;100.00;64058.16;4972294;28;20434;-93
2023/05/07 00:57:14;;;;;;;11.93;8.30;;;;;;;13.01;100.00;64058.50;4971520;28;20058;-93
2023/05/07 00:59:41;;;;;;;11.07;8.27;;;;;;;13.02;100.00;64059.16;4972370;28;20474;-93
2023/05/07 01:02:06;;;;;;;12.23;8.20;;;;;;;13.02;100.00;64059.50;4971852;28;20869;-93
2023/05/07 01:04:32;;;;;;;11.02;8.07;;;;;;;13.02;100.00;64059.25;4972525;28;20019;-93
2023/05/07 01:06:59;;;;;;;10.97;8.07;;;;;;;13.02;100.00;64059.25;4972089;28;20077;-92
2023/05/07 01:09:25;;;;;;;13.55;9.00;;;;;;;13.02;100.00;64059.25;4972093;28;20038;-92
2023/05/07 01:11:51;;;;;;;9.60;8.03;;;;;;;13.02;100.00;64059.44;4972314;28;20031;-93
2023/05/07 01:14:17;;;;;;;10.45;8.20;;;;;;;13.03;100.00;64059.84;4971923;28;20030;-94
2023/05/07 01:16:42;;;;;;;9.32;8.25;;;;;;;13.03;100.00;64060.34;4972053;28;20119;-93
2023/05/07 01:19:10;;;;;;;11.03;8.43;;;;;;;13.04;100.00;64060.69;4971610;28;20059;-93
2023/05/07 01:21:37;;;;;;;10.07;8.45;;;;;;;13.04;100.00;64061.34;4971852;28;20034;-92
2023/05/07 01:24:04;;;;;;;12.10;8.70;;;;;;;13.05;100.00;64062.25;4971622;28;20035;-92
2023/05/07 01:26:30;;;;;;;11.30;8.88;;;;;;;13.06;100.00;64063.06;4954251;28;20022;-92
2023/05/07 01:28:56;;;;;;;13.23;8.25;;;;;;;13.06;100.00;64064.34;4971967;28;20037;-93
2023/05/07 01:31:23;;;;;;;15.50;9.43;;;;;;;13.06;100.00;64064.50;4971666;28;20551;-92
2023/05/07 01:33:50;;;;;;;12.13;8.80;;;;;;;13.07;100.00;64064.41;4971946;28;20038;-92
2023/05/07 01:36:18;;;;;;;11.48;8.82;;;;;;;13.07;100.00;64064.25;4970801;28;20398;-92
2023/05/07 01:38:44;;;;;;;12.95;8.60;;;;;;;13.07;100.00;64064.69;4973404;28;20027;-92
2023/05/07 01:41:10;;;;;;;11.88;8.95;;;;;;;13.07;100.00;64064.41;4974790;28;20398;-92
2023/05/07 01:43:35;;;;;;;10.53;8.77;;;;;;;13.07;100.00;64064.56;4958401;28;20035;-92
2023/05/07 01:46:02;;;;;;;11.90;8.97;;;;;;;13.07;100.00;64064.41;4974711;28;20038;-91
2023/05/07 01:48:28;;;;;;;11.55;8.75;;;;;;;13.06;100.00;64064.16;4981090;28;20026;-93
2023/05/07 01:50:55;;;;;;;10.75;8.90;;;;;;;13.06;100.00;64064.09;4980663;28;20422;-93
2023/05/07 01:53:20;;;;;;;12.20;9.45;;;;;;;13.06;100.00;64063.91;4972532;28;20538;-93
2023/05/07 01:55:45;;;;;;;15.67;9.93;;;;;;;13.05;100.00;64063.34;4957718;28;20114;-93
2023/05/07 01:58:11;;;;;;;12.23;9.90;;;;;;;13.04;100.00;64062.75;4975793;28;20034;-93
2023/05/07 02:00:36;;;;;;;14.65;9.88;;;;;;;13.03;100.00;64061.59;4975442;28;20106;-93
2023/05/07 02:03:01;;;;;;;15.90;10.00;;;;;;;13.02;100.00;64059.84;4975397;28;20060;-93
2023/05/07 02:05:30;;;;;;;14.87;10.37;;;;;;;13.00;100.00;64058.25;4958508;28;20027;-93
2023/05/07 02:08:10;;;;;;;14.90;10.52;;;;;;;12.98;100.00;64056.50;4975851;28;20081;-93
2023/05/07 02:10:42;;;;;;;14.30;10.80;;;;;;;12.96;100.00;64054.94;4976227;28;20038;-92
2023/05/07 02:13:07;;;;;;;16.27;11.38;;;;;;;12.94;100.00;64052.59;4975592;28;20081;-93
2023/05/07 02:15:33;;;;;;;13.70;11.10;;;;;;;12.93;100.00;64051.41;4975581;28;20474;-93
2023/05/07 02:18:01;;;;;;;15.63;11.43;;;;;;;12.92;100.00;64050.41;4957986;28;20057;-94
2023/05/07 02:20:26;;;;;;;16.88;12.27;;;;;;;12.91;100.00;64049.84;4975032;28;20039;-94
2023/05/07 02:22:51;;;;;;;15.00;11.47;;;;;;;12.90;100.00;64048.84;4975006;28;20026;-94
2023/05/07 02:25:17;;;;;;;15.53;11.77;;;;;;;12.89;100.00;64047.16;4975274;28;20038;-94
2023/05/07 02:27:42;;;;;;;15.63;12.13;;;;;;;12.87;100.00;64045.75;4975789;28;20083;-94
2023/05/07 02:30:07;;;;;;;15.33;11.67;;;;;;;12.86;100.00;64044.59;4975332;28;20038;-94
2023/05/07 02:32:33;;;;;;;17.03;12.43;;;;;;;12.85;100.00;64044.09;4958817;28;20084;-91
2023/05/07 02:34:58;;;;;;;16.90;13.20;;;;;;;12.84;100.00;64042.84;4974965;28;20101;-94
2023/05/07 02:37:23;;;;;;;20.27;14.07;;;;;;;12.83;100.00;64042.09;4976040;28;20031;-94
2023/05/07 02:39:48;;;;;;;18.60;14.83;;;;;;;12.83;100.00;64041.84;4975060;28;20037;-92
2023/05/07 02:42:14;;;;;;;19.00;14.23;;;;;;;12.82;100.00;64041.19;4975335;28;20066;-92
2023/05/07 02:44:39;;;;;;;17.00;13.30;;;;;;;12.82;100.00;64040.84;4976712;28;20035;-92
2023/05/07 02:47:04;;;;;;;19.27;13.00;;;;;;;12.81;100.00;64040.34;4975970;28;20031;-92
2023/05/07 02:49:30;;;;;;;17.60;14.00;;;;;;;12.80;100.00;64039.34;4975832;28;20031;-92
2023/05/07 02:51:55;;;;;;;18.20;13.47;;;;;;;12.80;100.00;64038.59;4958645;28;20062;-93
2023/05/07 02:54:21;;;;;;;18.90;13.32;;;;;;;12.79;100.00;64038.00;4958378;28;20019;-93
2023/05/07 02:56:46;;;;;;;15.83;13.43;;;;;;;12.78;100.00;64037.69;4976105;28;20033;-92
2023/05/07 02:59:11;;;;;;;19.83;14.77;;;;;;;12.77;100.00;64037.03;4976967;28;20093;-92
2023/05/07 03:01:37;;;;;;;18.10;14.27;;;;;;;12.77;100.00;64036.25;4978756;28;20500;-92
2023/05/07 03:04:02;;;;;;;19.60;15.80;;;;;;;12.77;100.00;64036.50;4980815;28;20438;-92
2023/05/07 03:06:27;;;;;;;23.07;16.33;;;;;;;12.76;100.00;64035.50;4982800;28;20023;-92
2023/05/07 03:08:53;;;;;;;21.93;16.30;;;;;;;12.75;100.00;64035.19;4976220;28;20066;-92
2023/05/07 03:11:18;;;;;;;21.57;16.73;;;;;;;12.75;100.00;64034.09;4976059;28;20050;-93
2023/05/07 03:13:53;;;;;;;20.20;16.03;;;;;;;12.74;100.00;64033.78;4975215;28;20093;-93
2023/05/07 03:16:21;;;;;;;20.67;15.27;;;;;;;12.73;100.00;64032.84;4974684;28;20034;-93
2023/05/07 03:18:46;;;;;;;21.02;16.55;;;;;;;12.73;100.00;64032.34;4975074;28;20030;-92
2023/05/07 03:21:12;;;;;;;24.67;16.27;;;;;;;12.72;100.00;64032.25;4975133;28;20029;-94
2023/05/07 03:23:37;;;;;;;21.80;16.45;;;;;;;12.72;100.00;64031.53;4974872;28;20062;-93
2023/05/07 03:29:45;;;;;;;25.67;16.45;;;;;;;12.72;100.00;64031.53;4914815;29;20070;-93
2023/05/07 03:32:10;;;;;;;20.02;15.35;;;;;;;12.71;100.00;64030.69;5049539;23;20050;-94
2023/05/07 03:35:10;;;;;;;18.40;15.23;;;;;;;12.71;100.00;64031.09;4974179;28;20026;-94
2023/05/07 03:37:38;;;;;;;22.02;15.85;;;;;;;12.70;100.00;64030.34;4974675;28;20034;-94
2023/05/07 03:40:08;;;;;;;20.60;16.15;;;;;;;12.69;100.00;64029.25;4974149;28;20023;-94
2023/05/07 03:42:36;;;;;;;20.25;15.88;;;;;;;12.69;100.00;64029.19;4957670;28;20041;-93
2023/05/07 03:45:05;;;;;;;23.70;16.60;;;;;;;12.68;100.00;64028.19;4957474;28;20575;-93
2023/05/07 03:47:31;;;;;;;24.30;17.03;;;;;;;12.68;100.00;64027.69;4957169;28;20293;-93
2023/05/07 03:49:56;;;;;;;24.75;16.85;;;;;;;12.67;100.00;64026.94;4974458;28;20027;-94
2023/05/07 03:52:25;;;;;;;23.00;16.93;;;;;;;12.66;100.00;64026.59;4956459;28;20730;-94
2023/05/07 03:54:51;;;;;;;20.52;17.38;;;;;;;12.66;100.00;64026.50;4956428;28;20109;-93
2023/05/07 03:57:17;;;;;;;25.80;17.55;;;;;;;12.66;100.00;64026.59;4973986;28;20030;-94
2023/05/07 03:59:42;;;;;;;21.70;17.70;;;;;;;12.65;100.00;64025.94;4974301;28;20065;-93
2023/05/07 04:02:07;;;;;;;27.03;18.83;;;;;;;12.64;100.00;64025.78;4974020;28;20027;-94
2023/05/07 04:04:33;;;;;;;21.07;17.37;;;;;;;12.64;100.00;64025.44;4974163;28;20510;-93
2023/05/07 04:07:00;;;;;;;19.93;16.60;;;;;;;12.63;100.00;64024.84;4973756;28;20528;-93
2023/05/07 04:09:25;;;;;;;24.05;17.38;;;;;;;12.63;100.00;64024.59;4973989;28;20085;-94
2023/05/07 04:11:50;;;;;;;23.47;17.60;;;;;;;12.63;100.00;64024.94;4974557;28;20514;-93
2023/05/07 04:14:16;;;;;;;23.95;16.50;;;;;;;12.62;100.00;64024.19;4974682;28;20039;-94
2023/05/07 04:16:41;;;;;;;21.63;16.67;;;;;;;12.62;100.00;64023.94;4974254;28;20441;-94
2023/05/07 04:19:06;;;;;;;24.57;17.40;;;;;;;12.62;100.00;64024.09;4973870;28;20030;-93
2023/05/07 04:21:32;;;;;;;23.97;17.83;;;;;;;12.62;100.00;64024.53;4974164;28;20162;-94
2023/05/07 04:23:57;;;;;;;23.27;17.17;;;;;;;12.63;100.00;64024.94;4973393;28;20031;-93
2023/05/07 04:26:24;;;;;;;23.85;17.48;;;;;;;12.63;100.00;64024.94;4973517;28;20500;-93
2023/05/07 04:28:49;;;;;;;21.50;16.70;;;;;;;12.62;100.00;64025.03;4973517;28;20019;-92
2023/05/07 04:31:15;;;;;;;22.05;16.63;;;;;;;12.63;100.00;64025.59;4972532;28;20035;-92
2023/05/07 04:33:41;;;;;;;24.55;18.83;;;;;;;12.63;100.00;64026.09;4973365;28;20517;-93
2023/05/07 04:36:06;;;;;;;23.47;18.03;;;;;;;12.64;100.00;64026.88;4972757;28;20126;-92
2023/05/07 04:38:32;;;;;;;27.23;17.83;;;;;;;12.65;100.00;64027.84;4973107;28;20054;-92
2023/05/07 04:41:03;;;;;;;21.27;17.13;;;;;;;12.66;100.00;64028.84;4973243;28;20027;-92
2023/05/07 04:43:28;;;;;;;23.20;18.40;;;;;;;12.67;100.00;64029.94;4956438;28;20026;-92
2023/05/07 04:45:54;;;;;;;22.67;18.30;;;;;;;12.67;100.00;64030.44;4972775;28;20383;-94
2023/05/07 04:48:21;;;;;;;26.77;18.60;;;;;;;12.69;100.00;64031.53;4973032;28;20041;-93
2023/05/07 04:50:48;;;;;;;24.73;18.10;;;;;;;12.70;100.00;64033.19;4973101;28;20027;-93
2023/05/07 04:53:13;;;;;;;24.13;17.92;;;;;;;12.72;100.00;64034.69;4955908;28;20026;-93
2023/05/07 04:55:38;;;;;;;24.17;18.70;;;;;;;12.73;100.00;64036.19;4972654;28;20015;-92
2023/05/07 04:58:04;;;;;;;26.27;19.17;;;;;;;12.75;100.00;64038.09;4973013;28;20053;-93
2023/05/07 05:00:30;;;;;;;28.63;20.27;;;;;;;12.77;100.00;64039.59;4955588;28;20063;-92
2023/05/07 05:02:55;;;;;;;22.90;18.33;;;;;;;12.78;100.00;64041.19;4973137;28;20471;-93
2023/05/07 05:05:20;;;;;;;24.63;18.93;;;;;;;12.80;100.00;64043.53;4972356;28;20027;-93
2023/05/07 05:07:46;;;;;;;24.20;18.27;;;;;;;12.83;100.00;64046.19;4973033;28;20098;-93
2023/05/07 05:10:11;;;;;;;25.53;19.80;;;;;;;12.85;100.00;64048.50;4979509;23;20042;-93
2023/05/07 05:12:36;;;;;;;26.13;20.23;;;;;;;12.87;100.00;64050.94;4972319;28;20069;-92
2023/05/07 05:15:02;;;;;;;26.83;19.37;;;;;;;12.91;100.00;64054.09;4971811;28;20293;-92
2023/05/07 05:17:29;;;;;;;27.60;20.60;;;;;;;12.93;100.00;64057.16;4972396;28;20041;-92
2023/05/07 05:20:04;;;;;;;26.00;20.35;;;;;;;12.96;100.00;64060.09;4972175;28;20034;-92
2023/05/07 05:22:38;;;;;;;24.80;20.15;;;;;;;13.00;100.00;64063.66;4974008;28;20405;-92
2023/05/07 05:25:17;;;;;;;30.05;20.85;;;;;;;13.03;100.00;64067.44;4973436;28;20151;-92
2023/05/07 05:27:55;;;;;;;25.95;20.25;;;;;;;13.08;100.00;64071.75;4974957;28;20114;-93
2023/05/07 05:30:32;;;;;;;25.75;19.45;;;;;;;13.12;100.00;64076.59;4974490;28;20046;-93
2023/05/07 05:33:01;;;;;;;25.63;19.73;;;;;;;13.17;100.00;64081.50;4980313;28;20023;-92
2023/05/07 05:35:26;;;;;;;26.50;19.57;;;;;;;13.22;100.00;64086.41;4980247;28;20298;-92
2023/05/07 05:37:51;;;;;;;26.60;20.25;;;;;;;13.27;100.00;64091.31;4968208;28;20022;-92
2023/05/07 05:40:20;;;;;;;27.13;20.23;;;;;;;13.32;100.00;64096.00;4962652;28;20031;-92
2023/05/07 05:42:45;;;;;;;26.17;20.40;;;;;;;13.36;100.00;64099.91;4976286;28;20033;-93
2023/05/07 05:45:24;;;;;;;25.30;20.50;;;;;;;13.40;100.00;64104.50;4976743;28;20359;-93
2023/05/07 05:47:56;;;;;;;25.65;19.92;;;;;;;13.44;100.00;64108.84;4966430;28;20031;-92
2023/05/07 05:50:27;;;;;;;25.23;20.50;;;;;;;13.49;100.00;64113.69;4959944;28;20130;-92
2023/05/07 05:53:17;;;;;;;31.50;21.02;;;;;;;13.53;100.00;64117.84;4981344;28;20082;-92
2023/05/07 05:55:45;;;;;;;27.37;20.17;;;;;;;13.57;100.00;64121.59;4973158;28;20031;-92
2023/05/07 05:58:12;;;;;;;25.97;20.33;;;;;;;13.62;100.00;64126.84;4978923;28;20297;-92
2023/05/07 06:00:37;;;;;;;26.08;20.38;;;;;;;13.67;100.00;64132.00;4981575;28;20030;-91
2023/05/07 06:03:02;;;;;;;26.95;21.00;;;;;;;13.72;100.00;64137.09;4980170;28;20022;-92
2023/05/07 06:05:28;;;;;;;29.07;20.90;;;;;;;13.77;100.00;64142.84;4973856;28;20026;-92
2023/05/07 06:07:53;;;;;;;28.53;21.93;;;;;;;13.83;100.00;64148.53;4972504;28;20038;-92
2023/05/07 06:10:18;;;;;;;26.47;20.30;;;;;;;13.89;100.00;64154.44;4972249;28;20125;-92
2023/05/07 06:12:44;;;;;;;27.43;19.70;;;;;;;13.94;100.00;64160.34;4972246;28;20101;-92
2023/05/07 06:15:10;;;;;;;23.25;19.23;;;;;;;14.00;100.00;64166.63;4971924;28;20071;-92
2023/05/07 06:17:35;;;;;;;27.03;19.97;;;;;;;14.06;100.00;64172.69;4972348;28;20371;-92
2023/05/07 06:20:00;;;;;;;26.35;20.40;;;;;;;14.12;100.00;64178.53;4972333;28;20035;-92
2023/05/07 06:22:26;;;;;;;24.90;19.53;;;;;;;14.19;100.00;64185.53;4974054;28;20027;-92
2023/05/07 06:24:51;;;;;;;21.93;19.07;;;;;;;14.26;100.00;64192.38;4974816;28;20517;-92
2023/05/07 06:27:25;;;;;;;23.73;19.17;;;;;;;14.33;100.00;64199.78;4955754;28;20089;-92
2023/05/07 06:29:50;;;;;;;24.38;19.58;;;;;;;14.41;100.00;64206.97;4971988;28;20686;-93
2023/05/07 06:32:16;;;;;;;25.70;18.97;;;;;;;14.49;100.00;64215.22;4971914;28;20054;-92
2023/05/07 06:34:42;;;;;;;24.30;18.85;;;;;;;14.57;100.00;64223.72;4971685;28;20046;-92
2023/05/07 06:37:07;;;;;;;23.07;18.73;;;;;;;14.65;100.00;64231.91;4971297;28;20021;-91
2023/05/07 06:39:33;;;;;;;23.25;17.73;;;;;;;14.72;100.00;64239.34;4971001;28;20415;-93
2023/05/07 06:42:04;;;;;;;21.93;18.67;;;;;;;14.79;100.00;64246.38;4957129;28;20034;-92
2023/05/07 06:44:52;;;;;;;22.98;17.60;;;;;;;14.86;100.00;64252.94;4976089;28;20522;-91
2023/05/07 06:47:17;;;;;;;22.10;17.83;;;;;;;14.92;100.00;64259.13;4975954;28;20388;-91
2023/05/07 06:49:44;;;;;;;22.33;17.13;;;;;;;14.98;100.00;64266.03;4984740;23;20599;-91
2023/05/07 06:52:09;;;;;;;19.58;17.48;;;;;;;15.05;100.00;64272.63;4975070;28;20039;-91
2023/05/07 06:54:35;;;;;;;19.90;15.90;;;;;;;15.11;100.00;64278.72;4975524;28;20023;-91
2023/05/07 06:57:00;;;;;;;22.90;17.23;;;;;;;15.16;100.00;64284.31;4974384;28;20054;-92
2023/05/07 06:59:25;;;;;;;20.95;16.75;;;;;;;15.21;100.00;64289.41;4957543;28;20027;-92
2023/05/07 07:01:51;;;;;;;22.13;16.20;;;;;;;15.25;100.00;64293.56;4957626;28;20038;-91
2023/05/07 07:04:17;;;;;;;22.10;17.43;;;;;;;15.28;100.00;64296.66;4958903;28;20844;-91
2023/05/07 07:06:42;;;;;;;20.70;17.33;;;;;;;15.30;100.00;64299.09;4974466;28;20085;-91
2023/05/07 07:09:07;;;;;;;19.93;15.47;;;;;;;15.32;100.00;64301.16;4974686;28;20027;-92
2023/05/07 07:11:36;;;;;;;21.77;16.67;;;;;;;15.35;100.00;64303.75;4974656;28;20093;-91
2023/05/07 07:14:01;;;;;;;21.25;17.55;;;;;;;15.37;100.00;64306.34;4974560;28;20043;-91
2023/05/07 07:16:35;;;;;;;20.85;17.30;;;;;;;15.39;100.00;64307.94;4974390;28;20088;-91
2023/05/07 07:19:03;;;;;;;20.30;17.20;;;;;;;15.40;100.00;64309.59;4973387;28;20043;-92
2023/05/07 07:21:30;;;;;;;21.00;16.20;;;;;;;15.43;100.00;64312.44;4956945;28;20333;-91
2023/05/07 07:23:55;;;;;;;21.83;16.88;;;;;;;15.45;100.00;64314.09;4957341;28;20390;-92
2023/05/07 07:26:21;;;;;;;20.40;16.97;;;;;;;15.47;100.00;64316.44;4974110;28;20031;-91
2023/05/07 07:28:46;;;;;;;21.30;16.37;;;;;;;15.49;100.00;64318.69;4957063;28;20286;-92
2023/05/07 07:31:12;;;;;;;20.83;17.20;;;;;;;15.52;100.00;64321.03;4956681;28;20019;-91
2023/05/07 07:33:37;;;;;;;21.80;17.05;;;;;;;15.54;100.00;64323.28;4974092;28;20114;-92
2023/05/07 07:36:03;;;;;;;22.10;16.93;;;;;;;15.57;100.00;64326.47;4973869;28;20023;-92
2023/05/07 07:38:36;;;;;;;24.80;17.03;;;;;;;15.60;100.00;64329.53;4974513;28;20145;-91
2023/05/07 07:41:02;;;;;;;23.50;17.48;;;;;;;15.63;100.00;64332.97;4974070;28;20118;-92
2023/05/07 07:43:27;;;;;;;19.02;16.52;;;;;;;15.67;100.00;64337.06;4975041;28;20035;-92
2023/05/07 07:45:53;;;;;;;20.77;16.47;;;;;;;15.71;100.00;64341.81;4957005;28;20019;-92
2023/05/07 07:48:18;;;;;;;22.10;16.85;;;;;;;15.78;100.00;64348.59;4974311;28;20026;-92
2023/05/07 07:50:43;;;;;;;20.00;16.10;;;;;;;15.85;100.00;64356.25;4974029;28;20038;-92
2023/05/07 07:53:09;;;;;;;19.23;15.73;;;;;;;15.94;100.00;64364.72;4974085;28;20105;-92
2023/05/07 07:55:41;;;;;;;18.45;15.18;;;;;;;16.03;100.00;64373.97;4956568;28;20598;-92
2023/05/07 07:58:06;;;;;;;20.47;15.80;;;;;;;16.13;100.00;64384.59;4956375;28;20023;-92
2023/05/07 08:00:31;;;;;;;21.88;16.17;;;;;;;16.25;100.00;64397.28;4973970;28;20081;-91
2023/05/07 08:02:57;;;;;;;20.60;15.10;;;;;;;16.37;100.00;64410.06;4974075;28;20034;-92
2023/05/07 08:05:22;;;;;;;17.53;15.33;;;;;;;16.50;100.00;64423.66;4974170;28;20573;-91
2023/05/07 08:07:51;;;;;;;22.63;16.13;;;;;;;16.64;100.00;64437.47;4973764;28;20030;-92
2023/05/07 08:10:20;;;;;;;23.80;16.03;;;;;;;16.78;100.00;64451.16;4956152;28;20037;-91
2023/05/07 08:12:47;;;;;;;19.63;15.47;;;;;;;16.92;100.00;64465.69;4956549;28;20282;-91
2023/05/07 08:15:12;;;;;;;18.83;14.93;;;;;;;17.06;100.00;64480.34;4973199;28;20126;-92
2023/05/07 08:17:38;;;;;;;17.33;14.97;;;;;;;17.21;100.00;64495.28;4974186;28;20525;-91
2023/05/07 08:20:03;;;;;;;18.50;15.00;;;;;;;17.36;100.00;64511.16;4980886;28;20282;-92
2023/05/07 08:22:29;;;;;;;19.63;14.60;;;;;;;17.53;100.00;64527.88;4980774;28;20686;-91
2023/05/07 08:24:54;;;;;;;18.93;14.37;;;;;;;17.71;100.00;64546.84;4974472;28;20066;-91
2023/05/07 08:27:20;;;;;;;17.63;14.07;;;;;;;17.90;99.18;64565.91;4940966;28;20027;-90
2023/05/07 08:29:47;;;;;;;20.03;14.57;;;;;;;18.08;96.72;64584.41;4956587;28;20114;-91
2023/05/07 08:32:12;;;;;;;16.48;13.90;;;;;;;18.26;96.71;64602.28;4974245;28;20035;-91
2023/05/07 08:34:38;;;;;;;16.10;13.43;;;;;;;18.42;95.19;64617.94;4974085;28;20113;-91
2023/05/07 08:37:14;;;;;;;16.38;14.07;;;;;;;18.55;100.00;64631.81;4973153;28;20499;-91
2023/05/07 08:39:39;;;;;;;17.10;13.68;;;;;;;18.67;97.78;64643.94;4973963;28;20025;-91
2023/05/07 08:42:06;;;;;;;18.90;15.80;;;;;;;18.77;99.94;64654.81;4973798;28;20026;-90
2023/05/07 08:44:33;;;;;;;21.08;15.23;;;;;;;18.87;98.76;64664.88;4957149;28;20502;-91
2023/05/07 08:47:00;;;;;;;16.55;14.15;;;;;;;18.96;97.99;64673.59;4956548;28;20030;-91
2023/05/07 08:49:26;;;;;;;19.60;14.07;;;;;;;19.04;99.85;64682.03;4973841;28;20057;-91
2023/05/07 08:51:52;;;;;;;16.20;14.30;;;;;;;19.13;98.16;64690.72;4973442;28;20058;-91
2023/05/07 08:54:19;;;;;;;16.40;14.63;;;;;;;19.21;97.72;64699.53;4973066;28;20062;-91
2023/05/07 08:56:45;;;;;;;15.88;14.23;;;;;;;19.31;96.80;64709.31;4972498;28;20034;-91
2023/05/07 08:59:10;;;;;;;16.30;14.02;;;;;;;19.40;96.53;64719.03;4973468;28;20062;-91
2023/05/07 09:01:36;;;;;;;15.90;14.03;;;;;;;19.49;95.56;64728.81;4973778;28;20046;-91
2023/05/07 09:04:01;;;;;;;17.17;13.97;;;;;;;19.59;95.81;64739.19;4974380;28;20054;-91
2023/05/07 09:06:26;;;;;;;20.83;14.05;;;;;;;19.68;91.60;64747.88;4974577;28;20379;-91
2023/05/07 09:08:55;;;;;;;15.20;13.60;;;;;;;19.75;93.36;64755.44;4973603;28;20049;-91
2023/05/07 09:11:23;;;;;;;15.23;13.65;;;;;;;19.83;94.36;64763.63;4974802;28;20026;-91
2023/05/07 09:13:54;;;;;;;14.95;12.30;;;;;;;19.91;91.37;64771.78;4974679;28;20030;-89
2023/05/07 09:16:21;;;;;;;14.23;12.63;;;;;;;20.00;92.22;64781.41;4974176;28;20023;-91
2023/05/07 09:18:47;;;;;;;17.60;13.03;;;;;;;20.08;89.69;64789.94;4974588;28;20084;-90
2023/05/07 09:21:19;;;;;;;14.27;12.87;;;;;;;20.16;88.92;64798.84;4974477;28;20290;-90
2023/05/07 09:23:44;;;;;;;14.23;12.73;;;;;;;20.25;88.44;64807.63;4974977;28;20030;-90
2023/05/07 09:26:11;;;;;;;13.57;12.18;;;;;;;20.32;89.23;64815.06;4973720;28;20061;-90
2023/05/07 09:28:44;;;;;;;17.13;12.93;;;;;;;20.37;90.01;64820.59;4974320;28;20039;-90
2023/05/07 09:31:11;;;;;;;15.10;12.50;;;;;;;20.42;90.77;64826.56;4973121;28;20034;-90
2023/05/07 09:33:37;;;;;;;17.37;12.33;;;;;;;20.48;88.48;64832.34;4956298;28;20141;-90
2023/05/07 09:36:04;;;;;;;17.17;12.67;;;;;;;20.52;88.61;64836.44;4975551;28;20641;-90
2023/05/07 09:38:31;;;;;;;16.65;12.70;;;;;;;20.56;90.54;64840.53;4973335;28;20031;-90
2023/05/07 09:41:10;;;;;;;13.70;12.30;;;;;;;20.62;89.60;64846.91;4973909;28;20114;-90
2023/05/07 09:43:37;;;;;;;14.90;13.30;;;;;;;20.69;87.85;64854.09;4974521;28;20058;-90
2023/05/07 09:46:08;;;;;;;14.45;12.38;;;;;;;20.76;86.86;64861.44;4973018;28;20035;-90
2023/05/07 09:48:41;;;;;;;13.85;12.02;;;;;;;20.84;87.23;64870.31;4975484;28;20023;-90
2023/05/07 09:51:26;;;;;;;13.88;12.43;;;;;;;20.93;85.90;64879.84;4972530;28;20077;-90
2023/05/07 09:53:53;;;;;;;15.27;12.85;;;;;;;21.03;84.32;64890.16;4973181;28;20027;-90
2023/05/07 09:56:19;;;;;;;15.30;11.55;;;;;;;21.14;84.82;64901.16;4971474;28;20146;-89
2023/05/07 09:58:45;;;;;;;13.63;11.93;;;;;;;21.25;79.78;64912.63;4956585;28;20023;-90
2023/05/07 10:01:12;;;;;;;14.87;12.70;;;;;;;21.35;79.34;64922.59;4956447;28;20352;-90
2023/05/07 10:03:40;;;;;;;15.20;11.98;;;;;;;21.44;81.77;64932.47;4973383;28;20027;-89
2023/05/07 10:06:08;;;;;;;14.75;12.63;;;;;;;21.54;82.54;64942.63;4976029;28;20054;-89
2023/05/07 10:08:36;;;;;;;15.77;12.55;;;;;;;21.63;79.75;64951.44;4974468;28;20074;-90
2023/05/07 10:11:04;;;;;;;15.95;12.10;;;;;;;21.72;82.07;64961.50;4972327;28;20089;-89
2023/05/07 10:13:30;;;;;;;13.05;11.30;;;;;;;21.82;80.23;64972.47;4971950;28;20027;-90
2023/05/07 10:15:55;;;;;;;12.57;11.33;;;;;;;21.93;78.14;64983.06;4975084;28;20049;-90
2023/05/07 10:18:23;;;;;;;13.88;11.15;;;;;;;22.03;77.55;64994.38;4975829;28;20665;-89
2023/05/07 10:20:51;;;;;;;13.23;11.55;;;;;;;22.13;76.69;65004.19;4977246;28;20042;-90
2023/05/07 10:23:23;;;;;;;14.25;12.15;;;;;;;22.22;78.50;65014.00;4977518;28;20114;-90
2023/05/07 10:25:48;;;;;;;15.20;13.53;;;;;;;22.32;77.01;65024.56;4958184;28;20055;-90
2023/05/07 10:28:16;;;;;;;13.23;11.03;;;;;;;22.41;73.80;65033.97;4975655;28;20306;-90
2023/05/07 10:31:05;;;;;;;16.48;12.38;;;;;;;22.50;75.47;65044.03;4975889;28;20507;-90
2023/05/07 10:33:34;;;;;;;16.70;11.40;;;;;;;22.61;73.57;65054.44;4975297;28;20059;-91
2023/05/07 10:36:01;;;;;;;13.70;11.63;;;;;;;22.71;71.69;65065.34;4974745;28;20558;-90
2023/05/07 10:38:27;;;;;;;16.43;13.17;;;;;;;22.82;70.74;65076.69;4957782;28;20023;-90
2023/05/07 10:40:53;;;;;;;15.90;12.60;;;;;;;22.92;72.55;65087.94;4975113;28;20247;-89
2023/05/07 10:43:18;;;;;;;11.55;10.45;;;;;;;23.03;69.68;65099.06;4975394;28;20385;-90
2023/05/07 10:45:44;;;;;;;12.30;10.87;;;;;;;23.12;70.29;65108.81;4958368;28;20029;-90
2023/05/07 10:48:14;;;;;;;13.87;10.90;;;;;;;23.22;70.49;65119.16;4957935;28;20026;-90
2023/05/07 10:50:41;;;;;;;11.95;10.65;;;;;;;23.32;69.77;65129.16;4975032;28;20035;-89
2023/05/07 10:53:24;;;;;;;15.10;11.07;;;;;;;23.42;71.78;65139.47;4975040;28;20027;-89
2023/05/07 10:55:54;;;;;;;20.20;10.20;;;;;;;23.52;66.98;65149.63;4974365;28;20027;-90
2023/05/07 10:58:28;;;;;;;12.27;9.57;;;;;;;23.61;67.25;65159.03;4957569;28;20023;-90
2023/05/07 11:01:01;;;;;;;13.23;9.40;;;;;;;23.70;68.92;65168.34;4974854;28;20109;-89
2023/05/07 11:03:27;;;;;;;11.30;9.43;;;;;;;23.78;65.74;65176.50;4976164;28;20340;-90
2023/05/07 11:06:13;;;;;;;10.40;9.23;;;;;;;23.87;68.06;65185.28;4958453;28;20101;-90
2023/05/07 11:08:57;;;;;;;11.48;9.00;;;;;;;23.95;67.82;65194.03;4974912;28;20098;-90
2023/05/07 11:11:45;;;;;;;13.40;9.70;;;;;;;24.03;68.23;65202.19;4974213;28;20050;-90
2023/05/07 11:14:11;;;;;;;15.10;10.52;;;;;;;24.10;63.38;65208.81;4957453;28;20030;-89
2023/05/07 11:16:38;;;;;;;14.93;10.00;;;;;;;24.17;64.11;65215.88;4957554;28;20023;-90
2023/05/07 11:19:03;;;;;;;12.98;9.50;;;;;;;24.22;62.35;65221.25;4956238;28;20034;-90